Terminal Aerodrome Forecast
Issued by NWS

Home | Current Version | Previous Version | Text Only | Print | Product List | Glossary On
Versions: 1 2 3 4 5 6 7 8 9 10 11 12 13 14 15
000
FTUS45 KPIH 121100
TAFSUN
TAF
KSUN 121120Z 1212/1312 VRB06KT P6SM VCSH SCT120
     FM121700 14007KT P6SM VCTS SCT060 BKN100CB
     FM130300 31008KT P6SM BKN150
      AMD LTD TO CLD VIS AND WIND TIL 121300=

USA.gov is the U.S. government's official web portal to all federal, state and local government web resources and services.